Time;durP1;ratioP1;P1;durP2;ratioP2;P2;SDS_P1;SDS_P2;PMS_P1;PMS_P2;Temp;Humidity;BMP_temperature;BMP_pressure;BME280_temperature;BME280_humidity;BME280_pressure;Samples;Min_cycle;Max_cycle;Signal;HPM_P1;HPM_P2
2023/08/04 00:00:45;;;;;;;4.70;3.10;;;;;;;17.16;100.00;99764.06;5606813;31;34253;-73
2023/08/04 00:03:48;;;;;;;7.87;3.65;;;;;;;17.14;100.00;99765.31;5606724;31;33921;-73
2023/08/04 00:06:51;;;;;;;7.47;3.83;;;;;;;17.23;100.00;99775.50;5607104;31;33956;-73
2023/08/04 00:09:54;;;;;;;5.80;3.70;;;;;;;17.21;100.00;99772.25;5606872;31;33497;-73
2023/08/04 00:12:57;;;;;;;6.00;3.60;;;;;;;17.17;100.00;99770.25;5606629;31;33924;-73
2023/08/04 00:16:07;;;;;;;10.00;4.05;;;;;;;17.11;100.00;99750.50;5606634;31;34035;-74
2023/08/04 00:19:09;;;;;;;6.80;3.97;;;;;;;17.08;100.00;99734.91;5606647;31;33684;-74
2023/08/04 00:22:12;;;;;;;10.30;4.10;;;;;;;17.07;100.00;99737.78;5606579;31;33941;-75
2023/08/04 00:25:15;;;;;;;6.68;4.03;;;;;;;17.16;100.00;99747.16;5606817;31;33970;-75
2023/08/04 00:28:18;;;;;;;7.47;3.78;;;;;;;17.15;100.00;99809.84;5606336;31;34113;-74
2023/08/04 00:31:21;;;;;;;7.93;3.55;;;;;;;17.15;100.00;99904.47;5605566;31;33708;-73
2023/08/04 00:34:24;;;;;;;6.65;3.80;;;;;;;17.20;100.00;99910.00;5606378;31;33891;-76
2023/08/04 00:37:28;;;;;;;11.10;4.35;;;;;;;17.17;100.00;99845.28;5606166;31;33626;-73
2023/08/04 00:40:32;;;;;;;9.02;4.05;;;;;;;17.14;100.00;99910.03;5606566;31;33908;-72
2023/08/04 00:43:37;;;;;;;11.18;3.53;;;;;;;17.10;100.00;99887.41;5605529;31;32462;-72
2023/08/04 00:46:40;;;;;;;9.00;4.00;;;;;;;17.03;100.00;99863.37;5605513;31;33919;-72
2023/08/04 00:49:45;;;;;;;8.63;4.30;;;;;;;16.99;100.00;99859.50;5606179;31;34054;-72
2023/08/04 00:52:53;;;;;;;8.18;3.85;;;;;;;16.96;100.00;99870.66;5605994;31;33571;-72
2023/08/04 00:55:58;;;;;;;7.30;3.67;;;;;;;16.98;100.00;99855.19;5605604;31;34466;-72
2023/08/04 00:59:00;;;;;;;6.25;3.95;;;;;;;16.95;100.00;99845.72;5605139;31;33871;-72
2023/08/04 01:02:04;;;;;;;8.15;3.90;;;;;;;16.97;100.00;99869.63;5606004;31;34557;-71
2023/08/04 01:05:07;;;;;;;5.28;3.58;;;;;;;16.97;100.00;99817.87;5605890;31;33538;-72
2023/08/04 01:08:23;;;;;;;11.48;4.20;;;;;;;16.90;100.00;99824.13;5604996;31;34345;-72
2023/08/04 01:11:46;;;;;;;9.50;4.37;;;;;;;16.84;100.00;99792.88;5605613;31;33548;-73
2023/08/04 01:14:57;;;;;;;15.95;5.03;;;;;;;16.90;100.00;99788.47;5604672;31;33728;-73
2023/08/04 01:18:01;;;;;;;10.40;4.50;;;;;;;16.81;100.00;99813.91;5605609;31;33899;-73
2023/08/04 01:21:05;;;;;;;12.30;5.28;;;;;;;16.81;100.00;99841.53;5604688;31;33877;-73
2023/08/04 01:24:08;;;;;;;15.13;5.43;;;;;;;16.88;100.00;99842.31;5605763;31;33847;-73
2023/08/04 01:27:16;;;;;;;9.15;4.10;;;;;;;16.87;100.00;99840.66;5605473;31;33580;-73
2023/08/04 01:30:21;;;;;;;17.58;5.40;;;;;;;16.94;100.00;99824.53;5605196;31;34550;-72
2023/08/04 01:33:28;;;;;;;12.15;4.97;;;;;;;16.81;100.00;99833.50;5605559;31;34092;-73
2023/08/04 01:36:31;;;;;;;16.60;6.72;;;;;;;16.77;100.00;99843.03;5604385;31;33377;-72
2023/08/04 01:39:37;;;;;;;8.35;4.07;;;;;;;16.84;100.00;99840.28;5604442;31;33965;-73
2023/08/04 01:42:41;;;;;;;12.65;4.78;;;;;;;16.76;100.00;99854.78;5605573;31;33977;-72
2023/08/04 01:45:43;;;;;;;12.63;5.18;;;;;;;16.70;100.00;99862.88;5605015;31;33585;-72
2023/08/04 01:48:46;;;;;;;10.15;4.45;;;;;;;16.71;100.00;99864.50;5605240;31;34616;-73
2023/08/04 01:51:48;;;;;;;11.25;4.05;;;;;;;16.64;100.00;99882.50;5607836;31;33898;-74
2023/08/04 01:54:51;;;;;;;13.35;4.80;;;;;;;16.60;100.00;99897.38;5607984;31;33790;-72
2023/08/04 01:57:54;;;;;;;10.73;5.10;;;;;;;16.67;100.00;99876.69;5608055;31;33791;-73
2023/08/04 02:00:58;;;;;;;12.32;5.32;;;;;;;16.76;100.00;99876.19;5607984;31;33978;-73
2023/08/04 02:04:00;;;;;;;11.80;4.97;;;;;;;16.81;100.00;99870.19;5607878;31;33954;-73
2023/08/04 02:07:04;;;;;;;7.62;4.43;;;;;;;16.87;100.00;99862.09;5607922;31;33834;-73
2023/08/04 02:10:07;;;;;;;7.28;3.83;;;;;;;16.86;100.00;99865.81;5608228;31;34827;-73
2023/08/04 02:13:10;;;;;;;6.97;4.12;;;;;;;16.73;100.00;99873.16;5607770;31;33841;-73
2023/08/04 02:16:13;;;;;;;8.68;4.28;;;;;;;16.78;100.00;99871.47;5608072;31;35066;-72
2023/08/04 02:19:15;;;;;;;6.45;4.00;;;;;;;16.78;100.00;99850.03;5608050;31;34542;-73
2023/08/04 02:22:18;;;;;;;6.43;3.80;;;;;;;16.69;100.00;99824.56;5607713;31;33818;-73
2023/08/04 02:25:21;;;;;;;7.65;4.20;;;;;;;16.59;100.00;99799.31;5607637;31;34646;-73
2023/08/04 02:28:24;;;;;;;7.35;3.80;;;;;;;16.56;100.00;99810.41;5607677;31;33956;-73
2023/08/04 02:31:28;;;;;;;6.12;3.90;;;;;;;16.48;100.00;99823.06;5607560;31;34802;-72
2023/08/04 02:34:33;;;;;;;8.35;4.00;;;;;;;16.44;100.00;99837.94;5606739;31;34691;-72
2023/08/04 02:37:36;;;;;;;9.30;3.85;;;;;;;16.41;100.00;99851.75;5607562;31;34872;-72
2023/08/04 02:40:39;;;;;;;7.35;4.30;;;;;;;16.38;100.00;99854.03;5607469;31;33772;-73
2023/08/04 02:43:42;;;;;;;7.37;4.18;;;;;;;16.38;100.00;99846.84;5607348;31;34609;-72
2023/08/04 02:46:45;;;;;;;6.70;3.90;;;;;;;16.44;100.00;99839.78;5607311;31;34597;-72
2023/08/04 02:49:48;;;;;;;6.05;3.97;;;;;;;16.48;100.00;99838.31;5607404;31;34567;-72
2023/08/04 02:52:51;;;;;;;7.10;3.90;;;;;;;16.35;100.00;99839.25;5607356;31;34379;-73
2023/08/04 02:55:54;;;;;;;8.10;4.68;;;;;;;16.28;100.00;99827.75;5607349;31;33745;-73
2023/08/04 02:58:56;;;;;;;7.93;4.37;;;;;;;16.31;100.00;99819.31;5607293;31;34298;-72
2023/08/04 03:01:59;;;;;;;4.82;3.62;;;;;;;16.31;100.00;99840.72;5606089;31;33863;-74
2023/08/04 03:05:02;;;;;;;5.93;3.80;;;;;;;16.38;100.00;99856.72;5607694;31;33603;-73
2023/08/04 03:08:05;;;;;;;6.80;4.20;;;;;;;16.41;100.00;99902.63;5607251;31;33867;-73
2023/08/04 03:11:11;;;;;;;9.65;4.47;;;;;;;16.37;100.00;99919.31;5607236;31;33914;-72
2023/08/04 03:14:14;;;;;;;7.95;4.55;;;;;;;16.39;100.00;99909.22;5607101;31;33807;-72
2023/08/04 03:17:16;;;;;;;16.17;5.50;;;;;;;16.36;100.00;99921.19;5607470;31;34502;-71
2023/08/04 03:20:19;;;;;;;13.40;4.78;;;;;;;16.33;100.00;99918.13;5607544;31;33518;-72
2023/08/04 03:23:22;;;;;;;12.52;5.62;;;;;;;16.28;100.00;99909.91;5607069;31;33766;-72
2023/08/04 03:26:25;;;;;;;10.40;4.50;;;;;;;16.23;100.00;99910.56;5607021;31;34764;-72
2023/08/04 03:29:27;;;;;;;8.43;4.50;;;;;;;16.31;100.00;99880.06;5607380;31;33813;-73
2023/08/04 03:32:30;;;;;;;9.35;5.50;;;;;;;16.23;100.00;99881.13;5606970;31;34838;-75
2023/08/04 03:35:33;;;;;;;9.07;4.75;;;;;;;16.25;100.00;99888.94;5607411;31;33875;-73
2023/08/04 03:38:36;;;;;;;6.40;4.32;;;;;;;16.25;100.00;99902.34;5607110;31;34896;-73
2023/08/04 03:41:38;;;;;;;6.07;4.40;;;;;;;16.33;100.00;99899.38;5607109;31;33646;-73
2023/08/04 03:44:41;;;;;;;7.82;4.70;;;;;;;16.32;100.00;99889.72;5606954;31;34453;-72
2023/08/04 03:47:43;;;;;;;6.40;4.30;;;;;;;16.34;100.00;99891.16;5606976;31;34375;-73
2023/08/04 03:50:46;;;;;;;6.68;4.57;;;;;;;16.34;100.00;99887.66;5606955;31;34579;-73
2023/08/04 03:53:50;;;;;;;7.25;4.72;;;;;;;16.39;100.00;99901.19;5606740;31;34517;-73
2023/08/04 03:56:52;;;;;;;8.60;4.90;;;;;;;16.45;100.00;99893.13;5603481;31;34294;-73
2023/08/04 03:59:55;;;;;;;7.55;4.95;;;;;;;16.50;100.00;99889.81;5589341;31;34398;-73
2023/08/04 04:02:58;;;;;;;6.05;4.57;;;;;;;16.52;100.00;99890.38;5587017;31;33767;-72
2023/08/04 04:06:02;;;;;;;6.80;4.50;;;;;;;16.55;100.00;99910.56;5587091;31;33679;-73
2023/08/04 04:09:04;;;;;;;5.93;4.60;;;;;;;16.61;100.00;99940.00;5587007;31;33557;-74
2023/08/04 04:12:08;;;;;;;6.72;4.70;;;;;;;16.65;100.00;99935.88;5586050;31;33863;-74
2023/08/04 04:15:11;;;;;;;8.27;4.60;;;;;;;16.63;100.00;99929.88;5587257;31;34563;-76
2023/08/04 04:18:15;;;;;;;8.48;4.95;;;;;;;16.66;100.00;99952.72;5586856;31;34520;-77
2023/08/04 04:21:17;;;;;;;5.62;3.60;;;;;;;16.68;100.00;99931.91;5587064;31;33753;-74
2023/08/04 04:24:20;;;;;;;6.10;3.33;;;;;;;16.67;100.00;99930.25;5586810;31;33852;-74
2023/08/04 04:27:23;;;;;;;5.55;3.17;;;;;;;16.72;100.00;99931.25;5585651;31;32512;-74
2023/08/04 04:30:26;;;;;;;3.92;2.90;;;;;;;16.70;100.00;99940.56;5586631;31;33897;-75
2023/08/04 04:33:29;;;;;;;4.85;2.72;;;;;;;16.67;100.00;99965.91;5586384;31;34228;-74
2023/08/04 04:36:32;;;;;;;5.30;3.20;;;;;;;16.65;100.00;99951.94;5586699;31;33706;-73
2023/08/04 04:39:34;;;;;;;6.22;2.85;;;;;;;16.62;100.00;99938.13;5586599;31;33630;-73
2023/08/04 04:42:37;;;;;;;6.47;3.30;;;;;;;16.64;100.00;99922.69;5588646;31;34400;-73
2023/08/04 04:45:49;;;;;;;4.80;2.80;;;;;;;16.69;100.00;99904.91;5604494;31;33978;-72
2023/08/04 04:48:52;;;;;;;5.25;3.37;;;;;;;16.76;100.00;99878.06;5606214;31;34108;-74
2023/08/04 04:51:54;;;;;;;7.10;3.45;;;;;;;16.81;100.00;99884.41;5605712;31;34108;-74
2023/08/04 04:55:00;;;;;;;3.58;3.00;;;;;;;16.84;100.00;99875.94;5605401;31;34025;-74
2023/08/04 04:58:03;;;;;;;4.72;3.17;;;;;;;16.90;100.00;99883.06;5605672;31;34009;-75
2023/08/04 05:01:06;;;;;;;6.60;2.87;;;;;;;16.98;100.00;99878.47;5605694;31;34178;-74
2023/08/04 05:04:09;;;;;;;4.68;3.00;;;;;;;17.07;100.00;99869.09;5605528;31;35025;-74
2023/08/04 05:07:13;;;;;;;5.20;2.85;;;;;;;17.21;100.00;99881.31;5605259;31;35047;-74
2023/08/04 05:10:15;;;;;;;4.68;3.15;;;;;;;17.26;100.00;99862.72;5604130;31;32263;-74
2023/08/04 05:13:18;;;;;;;6.65;3.12;;;;;;;17.44;100.00;99869.91;5604318;31;34762;-74
2023/08/04 05:16:21;;;;;;;5.85;3.62;;;;;;;17.36;100.00;99858.47;5605082;31;34225;-73
2023/08/04 05:19:24;;;;;;;5.72;2.95;;;;;;;17.58;100.00;99863.34;5605124;31;34133;-74
2023/08/04 05:22:27;;;;;;;5.50;3.00;;;;;;;17.65;100.00;99866.81;5605188;31;33837;-73
2023/08/04 05:25:30;;;;;;;5.10;2.90;;;;;;;17.66;100.00;99863.09;5606408;31;35057;-71
2023/08/04 05:28:32;;;;;;;4.43;2.60;;;;;;;17.52;100.00;99862.41;5607105;31;34249;-72
2023/08/04 05:31:37;;;;;;;5.07;2.97;;;;;;;17.59;100.00;99867.72;5607018;31;34015;-71
2023/08/04 05:34:39;;;;;;;5.93;3.08;;;;;;;17.58;100.00;99864.16;5607603;31;35112;-72
2023/08/04 05:37:42;;;;;;;4.93;3.10;;;;;;;17.58;100.00;99863.34;5608214;31;33791;-72
2023/08/04 05:40:46;;;;;;;5.47;2.75;;;;;;;17.70;100.00;99864.28;5607600;31;34271;-71
2023/08/04 05:43:50;;;;;;;4.35;2.90;;;;;;;17.69;100.00;99854.59;5607754;31;34554;-71
2023/08/04 05:46:57;;;;;;;5.40;2.87;;;;;;;17.70;100.00;99851.69;5607163;31;34003;-72
2023/08/04 05:50:01;;;;;;;6.03;2.62;;;;;;;17.61;100.00;99854.91;5607610;31;34894;-72
2023/08/04 05:53:11;;;;;;;5.18;2.92;;;;;;;17.53;100.00;99850.63;5607587;31;34002;-72
2023/08/04 05:56:54;;;;;;;7.82;3.12;;;;;;;17.44;100.00;99843.94;5607624;31;33785;-72
2023/08/04 05:59:58;;;;;;;5.07;2.97;;;;;;;17.51;100.00;99843.84;5607684;31;33886;-72
2023/08/04 06:03:01;;;;;;;5.05;3.20;;;;;;;17.78;100.00;99853.22;5607941;31;34699;-72
2023/08/04 06:06:04;;;;;;;7.68;3.17;;;;;;;17.95;100.00;99856.09;5607380;31;34743;-72
2023/08/04 06:09:07;;;;;;;7.45;3.33;;;;;;;18.04;100.00;99854.72;5605228;31;34160;-72
2023/08/04 06:12:10;;;;;;;5.03;2.90;;;;;;;18.30;100.00;99850.81;5586469;31;34659;-72
2023/08/04 06:15:13;;;;;;;5.87;2.30;;;;;;;18.40;100.00;99841.13;5587531;31;34119;-74
2023/08/04 06:18:17;;;;;;;12.15;2.90;;;;;;;18.38;100.00;99835.19;5587427;31;34125;-71
2023/08/04 06:21:20;;;;;;;4.82;2.37;;;;;;;18.41;100.00;99836.56;5586179;31;34057;-71
2023/08/04 06:24:29;;;;;;;4.12;3.22;;;;;;;18.38;100.00;99837.88;5587551;31;33764;-71
2023/08/04 06:27:32;;;;;;;6.82;2.78;;;;;;;18.62;100.00;99841.44;5587960;31;34151;-72
2023/08/04 06:30:36;;;;;;;5.70;2.35;;;;;;;18.81;100.00;99845.62;5587487;31;33906;-71
2023/08/04 06:33:39;;;;;;;3.80;2.33;;;;;;;18.73;100.00;99840.63;5587303;31;34764;-72
2023/08/04 06:36:46;;;;;;;4.78;2.58;;;;;;;18.66;100.00;99840.72;5586841;31;34080;-71
2023/08/04 06:39:49;;;;;;;3.83;2.30;;;;;;;18.75;100.00;99841.19;5587029;31;34787;-71
2023/08/04 06:42:53;;;;;;;7.12;2.35;;;;;;;18.78;100.00;99838.06;5599495;31;34050;-72
2023/08/04 06:45:55;;;;;;;5.07;2.22;;;;;;;19.03;100.00;99849.34;5606658;31;34647;-73
2023/08/04 06:48:58;;;;;;;5.30;2.30;;;;;;;19.21;100.00;99859.16;5605939;31;34771;-73
2023/08/04 06:52:02;;;;;;;7.55;2.00;;;;;;;19.27;100.00;99846.59;5606883;31;34168;-75
2023/08/04 06:55:05;;;;;;;3.05;2.00;;;;;;;19.27;100.00;99841.22;5605887;31;34803;-76
2023/08/04 06:58:08;;;;;;;2.30;1.55;;;;;;;19.40;100.00;99849.88;5607036;31;34017;-75
2023/08/04 07:01:11;;;;;;;2.53;1.90;;;;;;;19.75;100.00;99851.69;5605341;31;33921;-76
2023/08/04 07:04:14;;;;;;;3.50;1.85;;;;;;;20.17;100.00;99866.44;5606791;31;34026;-76
2023/08/04 07:07:16;;;;;;;4.18;1.65;;;;;;;20.33;100.00;99878.34;5606676;31;35334;-75
2023/08/04 07:10:19;;;;;;;2.97;1.85;;;;;;;20.78;100.00;99872.84;5607174;31;34119;-77
2023/08/04 07:13:22;;;;;;;3.58;1.90;;;;;;;20.61;100.00;99872.06;5606711;31;34074;-75
2023/08/04 07:16:24;;;;;;;4.70;1.90;;;;;;;21.26;100.00;99874.91;5606782;31;33738;-74
2023/08/04 07:19:27;;;;;;;7.68;2.10;;;;;;;21.35;100.00;99865.31;5606935;31;33976;-74
2023/08/04 07:22:30;;;;;;;3.20;1.50;;;;;;;21.95;100.00;99867.94;5606888;31;33884;-77
2023/08/04 07:25:32;;;;;;;2.70;1.77;;;;;;;22.52;100.00;99878.19;5606677;31;34735;-75
2023/08/04 07:28:36;;;;;;;4.05;1.40;;;;;;;22.43;100.00;99877.03;5606485;31;34750;-73
2023/08/04 07:31:39;;;;;;;6.15;1.77;;;;;;;22.48;100.00;99885.19;5606692;31;33896;-72
2023/08/04 07:34:42;;;;;;;2.58;1.60;;;;;;;22.85;100.00;99882.56;5606518;31;34140;-73
2023/08/04 07:37:45;;;;;;;4.00;1.70;;;;;;;23.11;100.00;99878.09;5606467;31;34376;-71
2023/08/04 07:40:47;;;;;;;2.50;1.42;;;;;;;22.28;100.00;99876.91;5605782;31;34052;-71
2023/08/04 07:43:52;;;;;;;2.33;1.70;;;;;;;21.50;100.00;99875.50;5602246;31;143326;-71
2023/08/04 07:46:54;;;;;;;2.70;1.40;;;;;;;21.27;100.00;99868.47;5605731;31;33799;-71
2023/08/04 07:49:58;;;;;;;4.70;1.70;;;;;;;21.47;100.00;99873.31;5606520;31;33731;-71
2023/08/04 07:53:00;;;;;;;2.97;1.73;;;;;;;21.65;100.00;99898.09;5606728;31;35005;-70
2023/08/04 07:56:03;;;;;;;2.53;1.48;;;;;;;21.15;100.00;99900.97;5606269;31;34025;-70
2023/08/04 07:59:06;;;;;;;2.75;1.60;;;;;;;21.14;100.00;99899.31;5605996;31;34153;-70
2023/08/04 08:02:10;;;;;;;3.90;2.10;;;;;;;22.45;100.00;99899.25;5606146;31;34035;-70
2023/08/04 08:05:12;;;;;;;4.35;1.60;;;;;;;23.56;100.00;99908.16;5606256;31;33889;-70
2023/08/04 08:08:17;;;;;;;4.10;1.95;;;;;;;24.20;100.00;99899.72;5606166;31;34397;-69
2023/08/04 08:11:19;;;;;;;2.65;1.42;;;;;;;24.27;100.00;99894.84;5606091;31;34074;-69
2023/08/04 08:14:22;;;;;;;5.87;1.67;;;;;;;24.26;100.00;99890.50;5606186;31;34032;-71
2023/08/04 08:17:25;;;;;;;3.62;1.70;;;;;;;23.89;100.00;99890.66;5605701;31;35075;-69
2023/08/04 08:20:28;;;;;;;4.87;2.15;;;;;;;24.72;100.00;99887.81;5603574;31;34614;-69
2023/08/04 08:23:32;;;;;;;5.05;1.50;;;;;;;24.57;100.00;99883.19;5605205;31;34099;-70
2023/08/04 08:26:35;;;;;;;2.60;1.50;;;;;;;24.94;100.00;99886.44;5606052;31;33860;-72
2023/08/04 08:29:41;;;;;;;3.03;1.90;;;;;;;26.90;94.69;99888.44;5605877;31;33977;-71
2023/08/04 08:32:43;;;;;;;3.67;1.60;;;;;;;26.49;91.67;99887.94;5598878;31;33675;-70
2023/08/04 08:35:47;;;;;;;5.30;1.70;;;;;;;26.02;95.43;99884.97;5586315;31;34009;-70
2023/08/04 08:38:49;;;;;;;3.78;1.60;;;;;;;25.87;97.45;99875.00;5589997;31;34132;-72
2023/08/04 08:41:52;;;;;;;4.60;1.50;;;;;;;27.82;83.32;99883.59;5595481;31;34641;-71
2023/08/04 08:44:56;;;;;;;2.17;1.45;;;;;;;25.70;100.00;99872.69;5587120;31;33979;-70
2023/08/04 08:47:59;;;;;;;5.20;1.90;;;;;;;25.45;100.00;99873.56;5595391;31;35354;-71
2023/08/04 08:51:10;;;;;;;5.00;1.55;;;;;;;25.63;100.00;99876.75;5586119;31;33821;-70
2023/08/04 08:54:15;;;;;;;2.35;1.67;;;;;;;25.66;97.19;99876.22;5593815;31;34193;-71
2023/08/04 08:57:21;;;;;;;7.85;1.87;;;;;;;25.34;100.00;99874.69;5599383;31;34173;-70
2023/08/04 09:00:24;;;;;;;3.15;1.48;;;;;;;25.32;100.00;99873.34;5604129;31;33907;-70
2023/08/04 09:03:27;;;;;;;3.83;1.62;;;;;;;25.90;100.00;99869.03;5599619;31;35419;-71
2023/08/04 09:06:31;;;;;;;9.27;1.62;;;;;;;27.10;95.86;99874.62;5592435;31;35485;-71
2023/08/04 09:09:35;;;;;;;4.60;1.73;;;;;;;29.03;75.74;99880.88;5595723;31;35222;-71
2023/08/04 09:12:38;;;;;;;3.33;1.60;;;;;;;29.21;74.20;99885.44;5602602;31;34194;-72
2023/08/04 09:15:52;;;;;;;4.30;1.60;;;;;;;30.13;67.33;99892.56;5601881;31;33770;-71
2023/08/04 09:19:02;;;;;;;3.92;1.70;;;;;;;28.50;70.88;99904.97;5603637;31;34658;-70
2023/08/04 09:22:06;;;;;;;2.72;1.50;;;;;;;28.81;72.76;99899.81;5601211;31;33776;-71
2023/08/04 09:25:09;;;;;;;5.90;1.85;;;;;;;28.87;72.98;99896.72;5608193;31;34556;-68
2023/08/04 09:28:14;;;;;;;3.17;1.77;;;;;;;28.00;75.04;99898.31;5599848;31;34551;-70
2023/08/04 09:31:18;;;;;;;7.65;1.70;;;;;;;26.95;80.46;99885.66;5607100;31;33983;-70
2023/08/04 09:34:20;;;;;;;2.33;1.67;;;;;;;28.24;75.75;99881.91;5607558;31;33841;-71
2023/08/04 09:37:23;;;;;;;2.45;1.40;;;;;;;29.91;68.05;99890.62;5607693;31;34006;-68
2023/08/04 09:40:26;;;;;;;3.20;1.67;;;;;;;28.15;71.14;99878.22;5607399;31;34023;-71
2023/08/04 09:43:31;;;;;;;4.03;1.35;;;;;;;29.72;62.22;99879.78;5607135;31;34013;-70
2023/08/04 09:46:51;;;;;;;5.10;1.73;;;;;;;30.11;63.35;99881.16;5607274;31;35148;-69
2023/08/04 09:49:54;;;;;;;3.37;1.60;;;;;;;29.42;63.91;99869.47;5607526;31;34814;-69
2023/08/04 09:53:03;;;;;;;2.90;1.80;;;;;;;29.45;65.59;99877.06;5607388;31;33924;-69
2023/08/04 09:56:08;;;;;;;4.03;1.95;;;;;;;30.44;59.91;99871.59;5606139;31;34445;-69
2023/08/04 09:59:12;;;;;;;3.60;1.52;;;;;;;30.02;62.59;99850.13;5598862;31;32763;-69
2023/08/04 10:02:18;;;;;;;4.53;1.50;;;;;;;31.19;59.09;99854.31;5607306;31;33903;-68
2023/08/04 10:05:21;;;;;;;3.05;1.33;;;;;;;30.32;59.18;99843.13;5607052;31;34085;-70
2023/08/04 10:08:24;;;;;;;2.62;1.55;;;;;;;31.13;57.81;99841.09;5606075;31;35041;-68
2023/08/04 10:11:27;;;;;;;3.03;1.45;;;;;;;29.39;61.83;99836.50;5602147;31;34119;-70
2023/08/04 10:14:30;;;;;;;1.87;1.30;;;;;;;29.72;63.52;99830.56;5607426;31;34751;-69
2023/08/04 10:17:33;;;;;;;2.30;1.40;;;;;;;30.79;58.13;99839.75;5606312;31;34188;-69
2023/08/04 10:20:36;;;;;;;3.87;1.48;;;;;;;32.39;53.95;99847.44;5607078;31;33899;-69
2023/08/04 10:23:39;;;;;;;3.60;1.40;;;;;;;32.21;53.08;99854.84;5607080;31;34030;-70
2023/08/04 10:26:52;;;;;;;2.30;1.62;;;;;;;34.27;48.02;99855.94;5603371;31;34121;-70
2023/08/04 10:30:11;;;;;;;3.80;1.27;;;;;;;33.86;49.00;99852.00;5587081;31;33723;-69
2023/08/04 10:33:20;;;;;;;1.55;1.40;;;;;;;35.48;44.63;99858.94;5587400;31;34021;-69
2023/08/04 10:36:23;;;;;;;2.95;1.30;;;;;;;35.45;43.84;99856.84;5586856;31;34027;-70
2023/08/04 10:39:28;;;;;;;2.50;1.23;;;;;;;32.75;50.96;99848.66;5601868;31;34753;-69
2023/08/04 10:43:06;;;;;;;2.85;1.70;;;;;;;32.27;56.00;99846.13;5602135;31;33921;-70
2023/08/04 10:46:11;;;;;;;3.90;1.70;;;;;;;31.45;54.72;99848.91;5594798;31;33948;-68
2023/08/04 10:49:13;;;;;;;2.03;1.40;;;;;;;32.50;51.32;99846.75;5587346;31;34874;-69
2023/08/04 10:52:16;;;;;;;4.05;1.62;;;;;;;33.44;48.24;99850.34;5587220;31;34128;-69
2023/08/04 10:55:19;;;;;;;3.20;1.50;;;;;;;31.10;55.51;99834.28;5586766;31;34119;-69
2023/08/04 10:58:26;;;;;;;2.78;1.40;;;;;;;32.52;52.01;99847.22;5586457;31;33996;-70
2023/08/04 11:01:29;;;;;;;2.90;1.50;;;;;;;33.08;49.51;99850.78;5586113;31;34710;-70
2023/08/04 11:04:36;;;;;;;2.00;1.40;;;;;;;33.28;50.14;99852.03;5586849;31;33716;-69
2023/08/04 11:07:46;;;;;;;4.23;1.60;;;;;;;30.81;56.95;99843.00;5585974;31;34004;-70
2023/08/04 11:10:51;;;;;;;3.67;1.67;;;;;;;30.81;60.46;99844.91;5588543;31;34238;-69
2023/08/04 11:13:58;;;;;;;4.43;1.60;;;;;;;31.30;61.68;99847.41;5605750;31;34362;-69
2023/08/04 11:17:17;;;;;;;2.25;1.67;;;;;;;33.96;51.17;99848.84;5606838;31;34748;-69
2023/08/04 11:20:20;;;;;;;1.80;1.40;;;;;;;34.99;46.56;99843.50;5606704;31;34201;-69
2023/08/04 11:23:35;;;;;;;2.67;1.50;;;;;;;33.27;49.99;99848.47;5606503;31;34966;-70
2023/08/04 11:26:37;;;;;;;3.85;1.52;;;;;;;35.76;45.15;99848.00;5605986;31;33501;-68
2023/08/04 11:29:40;;;;;;;1.90;1.40;;;;;;;34.58;45.95;99831.47;5606364;31;34779;-69
2023/08/04 11:32:49;;;;;;;2.08;1.50;;;;;;;35.68;44.22;99846.19;5606784;31;34526;-70
2023/08/04 11:35:52;;;;;;;2.60;1.55;;;;;;;36.14;43.86;99840.09;5606558;31;33961;-69
2023/08/04 11:38:55;;;;;;;2.17;1.58;;;;;;;37.10;41.10;99848.22;5606669;31;33747;-69
2023/08/04 11:41:58;;;;;;;4.12;1.70;;;;;;;36.97;41.13;99839.19;5607037;31;34019;-69
2023/08/04 11:45:01;;;;;;;2.37;1.42;;;;;;;36.39;42.51;99846.31;5605442;31;33779;-69
2023/08/04 11:48:07;;;;;;;3.15;1.67;;;;;;;37.69;40.00;99839.75;5601769;31;34646;-69
2023/08/04 11:51:10;;;;;;;2.05;1.50;;;;;;;37.38;40.39;99832.28;5587317;31;34604;-70
2023/08/04 11:54:18;;;;;;;4.22;1.73;;;;;;;36.49;41.63;99837.50;5586607;31;34041;-70
2023/08/04 11:57:21;;;;;;;3.42;1.40;;;;;;;39.75;35.46;99847.13;5586899;31;34840;-70
2023/08/04 12:00:37;;;;;;;1.70;1.60;;;;;;;39.45;36.08;99849.88;5586960;31;34614;-69
2023/08/04 12:03:48;;;;;;;5.05;1.45;;;;;;;38.19;38.03;99838.06;5586863;31;33579;-69
2023/08/04 12:07:02;;;;;;;3.85;1.60;;;;;;;38.74;36.91;99830.38;5585905;31;33922;-69
2023/08/04 12:10:11;;;;;;;2.95;1.42;;;;;;;40.17;35.18;99834.97;5586429;31;33971;-69
2023/08/04 12:13:35;;;;;;;3.78;1.42;;;;;;;36.03;41.14;99827.91;5586620;31;34825;-70
2023/08/04 12:16:52;;;;;;;2.10;1.48;;;;;;;37.39;39.84;99822.03;5586449;31;33807;-69
2023/08/04 12:19:55;;;;;;;2.42;1.48;;;;;;;38.27;38.25;99835.06;5587015;31;34023;-70
2023/08/04 12:23:12;;;;;;;5.28;1.73;;;;;;;37.38;39.38;99824.00;5572945;31;33685;-70
2023/08/04 12:26:15;;;;;;;6.73;1.53;;;;;;;40.09;36.05;99819.41;5586558;31;33862;-70
2023/08/04 12:29:18;;;;;;;2.15;1.42;;;;;;;39.75;36.99;99821.31;5586671;31;33673;-69
2023/08/04 12:32:21;;;;;;;5.00;1.50;;;;;;;42.78;32.57;99829.59;5586646;31;34727;-69
2023/08/04 12:35:23;;;;;;;5.15;1.70;;;;;;;43.38;30.78;99820.41;5585843;31;33637;-69
2023/08/04 12:38:26;;;;;;;5.12;1.90;;;;;;;40.36;34.51;99812.56;5587091;31;33869;-69
2023/08/04 12:41:30;;;;;;;11.02;6.03;;;;;;;34.81;44.91;99807.06;5606085;31;33922;-69
2023/08/04 12:44:32;;;;;;;2.95;1.87;;;;;;;32.64;51.83;99808.13;5604669;31;33833;-68
2023/08/04 12:47:35;;;;;;;5.00;1.85;;;;;;;31.62;57.72;99801.53;5605613;31;34693;-68
2023/08/04 12:50:38;;;;;;;2.00;1.40;;;;;;;31.61;58.44;99808.19;5605916;31;34034;-69
2023/08/04 12:53:41;;;;;;;2.15;1.70;;;;;;;36.02;45.25;99804.19;5605289;31;33900;-69
2023/08/04 12:56:44;;;;;;;3.80;1.80;;;;;;;39.49;38.36;99806.31;5604922;31;34651;-70
2023/08/04 12:59:46;;;;;;;3.53;1.73;;;;;;;40.94;34.56;99798.84;5605574;31;33817;-69
2023/08/04 13:02:49;;;;;;;2.72;1.55;;;;;;;38.69;38.30;99790.72;5602776;31;33710;-69
2023/08/04 13:05:52;;;;;;;3.60;1.50;;;;;;;38.55;38.52;99779.37;5605530;31;33925;-68
2023/08/04 13:08:55;;;;;;;3.10;1.87;;;;;;;38.27;38.81;99782.41;5605659;31;34152;-69
2023/08/04 13:11:57;;;;;;;2.50;1.75;;;;;;;40.26;36.91;99786.25;5605989;31;34795;-69
2023/08/04 13:15:00;;;;;;;4.37;1.90;;;;;;;39.31;36.84;99776.66;5605527;31;33965;-69
2023/08/04 13:18:03;;;;;;;5.90;1.65;;;;;;;40.13;36.24;99781.34;5605224;31;33960;-69
2023/08/04 13:21:06;;;;;;;2.12;1.35;;;;;;;37.40;39.54;99769.09;5605390;31;33637;-69
2023/08/04 13:24:09;;;;;;;3.50;1.92;;;;;;;37.36;41.33;99773.75;5600522;31;33767;-69
2023/08/04 13:27:11;;;;;;;4.53;2.08;;;;;;;36.97;42.14;99780.31;5585438;31;34041;-68
2023/08/04 13:30:14;;;;;;;5.07;2.08;;;;;;;37.30;41.39;99788.22;5585144;31;33898;-69
2023/08/04 13:33:17;;;;;;;6.50;2.00;;;;;;;35.03;45.18;99786.53;5585658;31;33756;-69
2023/08/04 13:36:20;;;;;;;6.62;2.30;;;;;;;34.10;48.90;99784.47;5586544;31;34544;-69
2023/08/04 13:39:24;;;;;;;4.37;2.20;;;;;;;32.09;54.95;99775.91;5585215;31;34567;-69
2023/08/04 13:42:26;;;;;;;3.17;2.10;;;;;;;31.98;58.58;99777.34;5585028;31;33634;-69
2023/08/04 13:45:29;;;;;;;4.40;2.30;;;;;;;32.38;56.14;99774.41;5585484;31;34619;-68
2023/08/04 13:48:32;;;;;;;4.07;2.33;;;;;;;30.78;64.53;99768.88;5587851;31;34707;-69
2023/08/04 13:51:34;;;;;;;3.65;2.17;;;;;;;32.72;58.33;99768.84;5587677;31;34846;-69
2023/08/04 13:54:37;;;;;;;4.90;2.00;;;;;;;35.68;48.74;99772.44;5588010;31;34553;-69
2023/08/04 13:57:40;;;;;;;3.70;2.12;;;;;;;38.15;42.27;99782.56;5587742;31;34543;-68
2023/08/04 14:00:57;;;;;;;2.80;2.03;;;;;;;39.84;36.92;99781.00;5587767;31;33132;-69
2023/08/04 14:04:00;;;;;;;2.95;2.15;;;;;;;38.28;40.17;99769.38;5587621;31;34701;-69
2023/08/04 14:07:03;;;;;;;4.10;1.87;;;;;;;37.17;41.42;99765.41;5587773;31;34174;-69
2023/08/04 14:10:10;;;;;;;2.67;1.92;;;;;;;39.78;36.22;99770.59;5587228;31;33792;-69
2023/08/04 14:13:13;;;;;;;2.78;2.05;;;;;;;38.39;38.89;99764.81;5587685;31;33583;-68
2023/08/04 14:16:15;;;;;;;3.90;2.00;;;;;;;37.95;39.43;99753.28;5587655;31;35503;-70
2023/08/04 14:19:18;;;;;;;4.18;1.85;;;;;;;41.28;34.39;99759.72;5587347;31;34757;-69